Time;durP1;ratioP1;P1;durP2;ratioP2;P2;SDS_P1;SDS_P2;PMS_P1;PMS_P2;Temp;Humidity;BMP_temperature;BMP_pressure;BME280_temperature;BME280_humidity;BME280_pressure;Samples;Min_cycle;Max_cycle;Signal;HPM_P1;HPM_P2
2022/08/23 00:02:38;;;;;;;4.38;1.60;;;;;;;23.64;41.38;101303.09;16143576;19;130491;-36
2022/08/23 00:08:03;;;;;;;3.63;1.50;;;;;;;23.63;41.27;101295.81;16139384;19;129947;-35
2022/08/23 00:13:25;;;;;;;2.67;1.48;;;;;;;23.62;41.33;101302.53;16144609;19;129585;-36
2022/08/23 00:19:11;;;;;;;2.15;1.45;;;;;;;23.62;41.07;101288.59;16142733;19;130696;-36
2022/08/23 00:24:33;;;;;;;4.07;1.77;;;;;;;23.62;41.20;101288.59;16138594;19;130128;-35
2022/08/23 00:30:03;;;;;;;3.03;1.42;;;;;;;23.61;41.33;101286.91;16141413;19;130885;-35
2022/08/23 00:35:25;;;;;;;4.07;1.52;;;;;;;23.61;41.38;101281.31;16142964;19;129546;-35
2022/08/23 00:40:50;;;;;;;3.65;1.80;;;;;;;23.62;41.28;101287.72;16143646;19;129930;-35
2022/08/23 00:52:47;;;;;;;3.58;2.00;;;;;;;23.60;41.29;101287.16;16140042;19;130509;-35
2022/08/23 00:58:10;;;;;;;3.58;1.70;;;;;;;23.59;41.44;101271.50;16141896;19;129811;-36
2022/08/23 01:03:36;;;;;;;3.22;1.50;;;;;;;23.58;41.30;101276.25;16139140;19;130021;-37
2022/08/23 01:09:10;;;;;;;4.68;1.90;;;;;;;23.58;41.43;101273.47;16141012;19;129184;-35
2022/08/23 01:14:37;;;;;;;2.53;1.48;;;;;;;23.58;41.48;101273.47;16142077;19;129296;-36
2022/08/23 01:20:03;;;;;;;6.07;1.73;;;;;;;23.57;41.41;101274.53;16141211;19;129845;-36
2022/08/23 01:25:29;;;;;;;4.03;1.65;;;;;;;23.58;41.35;101281.84;16138377;19;129956;-35
2022/08/23 01:30:51;;;;;;;3.55;1.80;;;;;;;23.57;41.32;101277.34;16139715;19;130175;-36
2022/08/23 01:36:15;;;;;;;2.70;1.58;;;;;;;23.58;41.47;101287.44;16137079;19;129555;-35
2022/08/23 01:41:39;;;;;;;6.28;1.50;;;;;;;23.57;41.79;101274.53;16139754;19;129026;-36
2022/08/23 01:47:01;;;;;;;3.55;1.70;;;;;;;23.55;41.45;101276.75;16135262;19;128961;-36
2022/08/23 01:52:22;;;;;;;3.33;1.48;;;;;;;23.56;41.23;101280.41;16137983;19;129105;-36
2022/08/23 01:57:47;;;;;;;3.92;1.55;;;;;;;23.56;41.42;101274.84;16139676;19;130044;-35
2022/08/23 02:03:11;;;;;;;2.95;1.40;;;;;;;23.56;41.23;101288.78;16138989;19;129530;-35
2022/08/23 02:14:18;;;;;;;3.25;1.70;;;;;;;23.56;41.49;101280.41;16138520;19;131062;-36
2022/08/23 02:19:40;;;;;;;3.50;1.70;;;;;;;23.53;41.55;101273.41;16131510;19;130173;-36
2022/08/23 02:25:03;;;;;;;3.50;1.83;;;;;;;23.53;41.09;101287.34;16135248;19;130129;-35
2022/08/23 02:30:24;;;;;;;2.67;1.50;;;;;;;23.53;41.31;101290.16;16133614;19;131281;-36
2022/08/23 02:35:47;;;;;;;3.17;1.73;;;;;;;23.53;41.45;101300.50;16132907;19;129420;-35
2022/08/23 02:41:10;;;;;;;2.97;1.77;;;;;;;23.52;41.39;101294.06;16130141;19;130384;-35
2022/08/23 02:46:31;;;;;;;2.50;1.60;;;;;;;23.52;41.57;101291.25;16132168;19;130907;-35
2022/08/23 02:51:53;;;;;;;4.07;1.60;;;;;;;23.51;41.50;101286.78;16136415;19;129539;-36
2022/08/23 02:57:15;;;;;;;4.85;1.70;;;;;;;23.52;41.37;101305.22;16143530;19;129308;-35
2022/08/23 03:02:37;;;;;;;4.85;1.80;;;;;;;23.51;41.33;101303.53;16146164;19;129910;-36
2022/08/23 03:07:59;;;;;;;5.53;1.42;;;;;;;23.50;41.39;101302.72;16134685;19;130694;-35
2022/08/23 03:13:21;;;;;;;2.92;1.50;;;;;;;23.49;41.46;101303.81;16143953;19;130359;-36
2022/08/23 03:18:43;;;;;;;2.75;1.33;;;;;;;23.49;41.60;101311.38;16144338;19;128996;-35
2022/08/23 03:24:05;;;;;;;3.88;1.60;;;;;;;23.49;41.43;101308.59;16147225;19;129360;-35
2022/08/23 03:29:31;;;;;;;4.85;1.77;;;;;;;23.49;41.11;101314.16;16146398;19;129921;-35
2022/08/23 03:34:53;;;;;;;3.85;1.60;;;;;;;23.48;41.29;101310.50;16144208;19;129648;-35
2022/08/23 03:40:15;;;;;;;3.25;1.67;;;;;;;23.46;41.40;101311.91;16145725;19;129843;-36
2022/08/23 03:45:37;;;;;;;5.15;1.60;;;;;;;23.46;41.09;101311.91;16143577;19;129490;-36
2022/08/23 03:50:59;;;;;;;4.07;1.60;;;;;;;23.46;41.57;101323.06;16144441;19;129696;-36
2022/08/23 03:56:36;;;;;;;4.15;2.00;;;;;;;23.45;41.55;101333.38;16140295;19;129756;-36
2022/08/23 04:01:58;;;;;;;4.75;1.63;;;;;;;23.45;41.70;101340.94;16145099;19;130153;-36
2022/08/23 04:07:20;;;;;;;7.75;1.63;;;;;;;23.45;41.54;101344.56;16141769;19;130141;-36
2022/08/23 04:12:42;;;;;;;3.53;1.60;;;;;;;23.44;41.73;101342.91;16142579;19;130052;-36
2022/08/23 04:18:05;;;;;;;5.53;1.60;;;;;;;23.44;41.32;101354.06;16144353;19;129203;-42
2022/08/23 04:23:30;;;;;;;5.40;1.85;;;;;;;23.44;41.69;101347.63;16143795;19;129159;-39
2022/08/23 04:28:51;;;;;;;3.85;1.75;;;;;;;23.44;41.16;101350.44;16138410;19;130281;-37
2022/08/23 04:34:15;;;;;;;5.15;1.95;;;;;;;23.43;41.49;101354.31;16142072;19;129406;-43
2022/08/23 04:45:21;;;;;;;4.78;1.52;;;;;;;23.42;41.44;101374.97;16138064;19;129440;-46
2022/08/23 04:50:43;;;;;;;5.03;1.60;;;;;;;23.41;41.41;101376.09;16141539;19;129083;-36
2022/08/23 04:56:07;;;;;;;5.63;2.13;;;;;;;23.40;41.39;101385.56;16135346;19;128941;-36
2022/08/23 05:01:29;;;;;;;5.05;1.75;;;;;;;23.41;41.29;101384.47;16141168;19;129327;-35
2022/08/23 05:06:51;;;;;;;6.75;2.00;;;;;;;23.40;41.31;101383.63;16137926;19;129658;-35
2022/08/23 05:12:13;;;;;;;3.60;1.90;;;;;;;23.39;41.54;101390.31;16140400;19;129562;-36
2022/08/23 05:17:35;;;;;;;13.32;2.08;;;;;;;23.39;41.60;101383.88;16134870;19;130639;-35
2022/08/23 05:22:59;;;;;;;7.45;2.50;;;;;;;23.40;41.61;101396.72;16138889;19;129325;-36
2022/08/23 05:28:29;;;;;;;13.13;3.90;;;;;;;23.37;41.58;101397.28;16134873;19;130239;-38
2022/08/23 05:33:52;;;;;;;12.10;4.43;;;;;;;23.30;41.85;101387.19;16135959;19;129508;-45
2022/08/23 05:39:14;;;;;;;18.42;5.43;;;;;;;23.32;41.57;101401.72;16141460;19;129109;-45
2022/08/23 05:44:56;;;;;;;13.43;5.75;;;;;;;23.32;41.57;101398.09;16139217;19;130678;-44
2022/08/23 05:50:18;;;;;;;14.18;5.80;;;;;;;23.31;41.89;101405.63;16138430;19;130332;-45
2022/08/23 05:55:40;;;;;;;12.27;5.90;;;;;;;23.33;42.30;101408.13;16134079;19;130519;-44
2022/08/23 06:01:02;;;;;;;13.80;5.75;;;;;;;23.34;42.14;101409.81;16134948;19;129371;-45
2022/08/23 06:06:23;;;;;;;18.27;7.55;;;;;;;23.35;42.06;101415.16;16136856;19;130496;-44
2022/08/23 06:11:58;;;;;;;15.07;7.72;;;;;;;23.35;41.94;101417.09;16133148;19;130063;-45
2022/08/23 06:17:20;;;;;;;18.33;8.02;;;;;;;23.34;42.24;101415.41;16134044;19;129955;-46
2022/08/23 06:22:42;;;;;;;16.05;6.93;;;;;;;23.38;42.41;101426.91;16136521;19;129596;-45
2022/08/23 06:28:04;;;;;;;20.52;7.72;;;;;;;23.38;42.58;101421.31;16129390;19;129909;-45
2022/08/23 06:33:26;;;;;;;17.10;8.38;;;;;;;23.43;42.60;101424.13;16135548;19;129688;-45
2022/08/23 06:38:49;;;;;;;16.10;7.40;;;;;;;23.49;42.30;101418.31;16135736;19;129025;-45
2022/08/23 06:44:11;;;;;;;20.58;8.80;;;;;;;23.58;42.64;101417.81;16136526;19;131940;-45
2022/08/23 06:49:34;;;;;;;15.35;8.40;;;;;;;23.63;42.60;101418.72;16127342;19;129452;-45
2022/08/23 06:54:55;;;;;;;21.67;9.15;;;;;;;23.67;42.73;101424.63;16130006;19;128992;-45
2022/08/23 07:00:18;;;;;;;23.25;8.48;;;;;;;23.69;43.18;101421.56;16133663;19;128998;-45
2022/08/23 07:05:42;;;;;;;14.73;8.43;;;;;;;23.71;42.77;101419.34;16133617;19;129727;-45
2022/08/23 07:11:05;;;;;;;15.68;7.45;;;;;;;23.76;43.03;101422.16;16133426;19;128995;-45
2022/08/23 07:16:40;;;;;;;17.67;6.97;;;;;;;23.82;42.83;101429.47;16132156;19;129567;-45
2022/08/23 07:22:03;;;;;;;;;;;;;;;23.87;42.89;101445.41;16132597;19;130808;-45
2022/08/23 07:27:25;;;;;;;21.60;7.03;;;;;;;23.99;42.82;101442.44;16127414;19;129255;-46
2022/08/23 07:32:47;;;;;;;18.02;6.82;;;;;;;24.04;42.67;101440.50;16130127;19;129504;-45
2022/08/23 07:38:08;;;;;;;16.35;6.63;;;;;;;24.14;42.58;101450.88;16136300;19;130144;-46
2022/08/23 07:43:32;;;;;;;25.17;7.15;;;;;;;24.21;42.15;101454.28;16145593;19;129692;-45
2022/08/23 07:48:56;;;;;;;18.00;5.82;;;;;;;24.30;42.22;101464.97;16132113;19;129898;-45
2022/08/23 07:54:21;;;;;;;16.98;5.38;;;;;;;24.34;42.18;101460.53;16138295;19;129085;-51
2022/08/23 07:59:42;;;;;;;15.30;4.65;;;;;;;24.38;41.95;101461.63;16142649;19;129326;-45
2022/08/23 08:05:05;;;;;;;12.15;4.57;;;;;;;24.44;41.70;101466.16;16144054;19;129972;-46
2022/08/23 08:10:26;;;;;;;17.55;4.63;;;;;;;24.50;41.52;101470.63;16140440;19;129622;-45
2022/08/23 08:15:48;;;;;;;12.85;4.30;;;;;;;24.56;41.57;101468.69;16146865;19;128855;-45
2022/08/23 08:21:14;;;;;;;13.85;4.35;;;;;;;24.62;41.31;101483.53;16144092;19;129907;-46
2022/08/23 08:26:36;;;;;;;13.20;4.00;;;;;;;24.63;41.13;101482.44;16144841;19;129760;-46
2022/08/23 08:31:58;;;;;;;17.13;3.70;;;;;;;24.63;40.90;101486.09;16140536;19;128937;-46
2022/08/23 08:37:20;;;;;;;15.55;3.85;;;;;;;24.63;41.02;101485.22;16143156;19;129359;-46
2022/08/23 08:42:44;;;;;;;10.60;3.53;;;;;;;24.67;40.73;101480.78;16144687;19;130328;-46
2022/08/23 08:48:09;;;;;;;15.73;3.30;;;;;;;24.69;40.67;101479.38;16138325;19;130102;-46
2022/08/23 08:53:38;;;;;;;14.85;3.58;;;;;;;24.71;40.95;101488.34;16140048;19;129388;-45
2022/08/23 08:59:18;;;;;;;9.90;2.92;;;;;;;24.72;40.92;101483.59;16142876;19;129521;-46
2022/08/23 09:04:44;;;;;;;11.27;3.10;;;;;;;24.71;40.99;101491.16;16136999;19;129289;-45
2022/08/23 09:10:24;;;;;;;10.43;2.63;;;;;;;24.74;41.04;101492.53;16137653;19;129441;-45
2022/08/23 09:16:01;;;;;;;8.40;2.63;;;;;;;24.73;40.57;101488.09;16143734;19;129235;-46
2022/08/23 09:21:23;;;;;;;11.48;2.85;;;;;;;24.73;40.70;101490.88;16140121;19;129406;-45
2022/08/23 09:26:52;;;;;;;5.45;1.85;;;;;;;24.76;40.83;101489.50;16138191;19;130561;-46
2022/08/23 09:32:28;;;;;;;13.23;2.33;;;;;;;24.77;41.06;101485.56;16140761;19;129656;-46
2022/08/23 09:38:11;;;;;;;7.43;1.80;;;;;;;24.76;40.90;101484.72;16141638;19;129580;-46
2022/08/23 09:43:42;;;;;;;6.72;1.60;;;;;;;24.76;40.89;101476.31;16139432;19;130465;-46
2022/08/23 09:49:28;;;;;;;5.40;2.10;;;;;;;24.78;40.73;101476.06;16134552;19;129255;-45
2022/08/23 09:55:40;;;;;;;9.50;1.42;;;;;;;24.75;40.95;101471.84;16133820;19;129418;-46
2022/08/23 10:01:21;;;;;;;9.05;1.42;;;;;;;24.79;40.85;101466.56;16135877;19;129118;-45
2022/08/23 10:06:45;;;;;;;5.20;1.48;;;;;;;24.75;40.93;101466.25;16135163;19;129478;-45
2022/08/23 10:12:07;;;;;;;9.25;1.80;;;;;;;24.74;40.96;101472.97;16138852;19;129495;-46
2022/08/23 10:17:44;;;;;;;4.65;1.20;;;;;;;24.72;40.94;101464.84;16139579;19;129371;-45
2022/08/23 10:23:11;;;;;;;5.95;1.70;;;;;;;24.71;41.11;101459.53;16138139;19;129282;-46
2022/08/23 10:35:13;;;;;;;4.85;1.48;;;;;;;24.69;41.37;101456.16;16127972;19;129042;-46
2022/08/23 10:40:35;;;;;;;5.80;2.05;;;;;;;24.64;41.27;101465.41;16129367;19;129480;-45
2022/08/23 10:46:00;;;;;;;8.90;1.98;;;;;;;24.62;41.27;101453.63;16124831;19;130327;-46
2022/08/23 10:51:29;;;;;;;2.67;1.63;;;;;;;24.61;41.44;101454.75;16123117;19;129568;-46
2022/08/23 10:56:52;;;;;;;5.85;2.15;;;;;;;24.62;41.36;101445.25;16121720;19;129401;-46
2022/08/23 11:02:24;;;;;;;3.75;1.65;;;;;;;24.63;41.59;101449.72;16126766;19;129589;-46
2022/08/23 11:08:11;;;;;;;8.10;1.92;;;;;;;24.62;41.42;101442.44;16123067;19;130599;-46
2022/08/23 11:13:33;;;;;;;9.02;2.00;;;;;;;24.60;41.70;101443.84;16138110;19;129155;-46
2022/08/23 11:18:56;;;;;;;10.43;1.70;;;;;;;24.61;41.76;101448.31;16148743;19;129458;-46
2022/08/23 11:24:29;;;;;;;6.82;1.70;;;;;;;24.65;41.94;101449.44;16137646;19;129526;-46
2022/08/23 11:29:51;;;;;;;5.68;1.80;;;;;;;24.66;42.27;101451.97;16144814;19;129329;-45
2022/08/23 11:35:36;;;;;;;6.50;1.73;;;;;;;24.71;42.33;101448.34;16149512;19;129207;-45
2022/08/23 11:41:18;;;;;;;6.88;1.67;;;;;;;24.76;42.27;101447.53;16142161;19;130759;-45
2022/08/23 11:46:49;;;;;;;6.53;1.50;;;;;;;24.79;42.21;101452.56;16146323;19;129317;-45
2022/08/23 11:52:23;;;;;;;5.32;1.40;;;;;;;24.81;42.54;101448.38;16139241;19;129173;-45
2022/08/23 11:57:50;;;;;;;6.85;1.40;;;;;;;24.82;41.88;101447.25;16149022;19;129773;-45
2022/08/23 12:03:39;;;;;;;3.50;1.30;;;;;;;24.87;41.62;101455.66;16139923;19;129592;-45
2022/08/23 12:09:21;;;;;;;15.13;1.80;;;;;;;24.90;41.93;101450.66;16139771;19;129146;-46
2022/08/23 12:14:44;;;;;;;7.95;1.30;;;;;;;24.88;41.68;101451.75;16144326;19;130755;-46
2022/08/23 12:20:06;;;;;;;4.90;0.93;;;;;;;24.87;41.80;101452.84;16141680;19;129202;-47
2022/08/23 12:25:38;;;;;;;10.05;1.20;;;;;;;24.93;42.03;101455.69;16124197;19;129968;-44
2022/08/23 12:31:15;;;;;;;6.35;1.30;;;;;;;24.96;42.35;101444.78;16132856;19;130925;-42
2022/08/23 12:36:54;;;;;;;5.97;1.02;;;;;;;24.94;42.19;101447.00;16143991;19;129171;-46
2022/08/23 12:42:23;;;;;;;3.92;1.10;;;;;;;24.94;42.58;101457.38;16142000;19;129326;-43
2022/08/23 12:47:58;;;;;;;5.88;1.20;;;;;;;24.94;42.32;101458.22;16139730;19;129970;-42
2022/08/23 12:53:33;;;;;;;1.98;0.80;;;;;;;24.92;42.37;101449.28;16137127;19;129205;-42
2022/08/23 12:59:03;;;;;;;7.67;1.13;;;;;;;24.90;42.61;101451.50;16142612;19;129168;-43
2022/08/23 13:04:26;;;;;;;3.78;0.90;;;;;;;24.86;42.29;101456.75;16138117;19;136549;-42
2022/08/23 13:09:49;;;;;;;12.05;1.40;;;;;;;24.86;42.58;101464.31;16137659;19;129786;-48
2022/08/23 13:15:49;;;;;;;3.75;1.05;;;;;;;24.87;42.81;101460.41;16137932;19;129318;-43
2022/08/23 13:21:31;;;;;;;6.80;1.07;;;;;;;24.87;42.59;101469.63;16139004;19;129484;-44
2022/08/23 13:27:32;;;;;;;3.25;1.00;;;;;;;24.84;42.76;101461.81;16140021;19;130041;-44
2022/08/23 13:33:04;;;;;;;9.60;1.00;;;;;;;24.86;43.04;101451.16;16134950;19;130817;-48
2022/08/23 13:38:30;;;;;;;7.78;1.20;;;;;;;24.87;42.74;101455.66;16136869;19;129647;-46
2022/08/23 13:43:53;;;;;;;8.63;1.10;;;;;;;24.90;43.27;101459.91;16139265;19;130263;-45
2022/08/23 13:49:27;;;;;;;10.18;1.30;;;;;;;24.94;43.06;101451.78;16135840;19;129613;-43
2022/08/23 13:54:49;;;;;;;7.85;1.20;;;;;;;24.95;43.39;101456.28;16135863;19;129782;-44
2022/08/23 14:00:14;;;;;;;5.18;1.48;;;;;;;24.95;42.96;101453.47;16136825;19;130445;-43
2022/08/23 14:05:40;;;;;;;4.35;1.20;;;;;;;24.96;43.16;101436.38;16128257;19;130432;-46
2022/08/23 14:11:02;;;;;;;4.50;1.20;;;;;;;24.96;43.16;101438.34;16132267;19;129667;-47
2022/08/23 14:16:33;;;;;;;4.72;1.10;;;;;;;24.95;43.24;101447.88;16138175;19;129358;-46
2022/08/23 14:21:59;;;;;;;;;;;;;;;24.87;43.03;101438.84;16138665;19;129341;-45
2022/08/23 14:27:21;;;;;;;4.80;1.23;;;;;;;24.90;43.15;101445.06;16135063;19;129674;-45
2022/08/23 14:32:43;;;;;;;8.65;1.30;;;;;;;24.84;43.25;101442.22;16134221;19;129079;-45
2022/08/23 14:38:05;;;;;;;5.43;0.80;;;;;;;24.84;43.12;101431.03;16131650;19;129013;-46
2022/08/23 14:43:28;;;;;;;6.13;0.90;;;;;;;24.84;43.01;101433.84;16135919;19;129430;-44
2022/08/23 14:48:50;;;;;;;3.40;0.82;;;;;;;24.83;43.27;101431.28;16140972;19;132890;-45
2022/08/23 14:54:19;;;;;;;4.72;0.90;;;;;;;24.83;43.02;101432.16;16149489;19;129373;-46
2022/08/23 14:59:41;;;;;;;4.03;0.85;;;;;;;24.81;43.05;101427.91;16150899;19;130082;-44
2022/08/23 15:05:03;;;;;;;5.63;0.88;;;;;;;24.81;43.37;101425.97;16150411;19;130841;-44
2022/08/23 15:10:25;;;;;;;3.83;0.68;;;;;;;24.81;43.10;101425.13;16145737;19;129445;-45
2022/08/23 15:16:09;;;;;;;5.82;0.70;;;;;;;24.80;43.10;101432.69;16149841;19;129880;-47
2022/08/23 15:21:31;;;;;;;2.05;0.52;;;;;;;24.78;43.18;101432.13;16148096;19;128909;-43
2022/08/23 15:26:58;;;;;;;5.80;0.77;;;;;;;24.79;43.00;101424.59;16149016;19;130600;-43
2022/08/23 15:32:20;;;;;;;6.55;0.80;;;;;;;24.78;42.99;101418.13;16148626;19;129533;-42
2022/08/23 15:37:43;;;;;;;2.95;0.70;;;;;;;24.78;43.12;101429.31;16149213;19;129404;-43
2022/08/23 15:43:04;;;;;;;4.97;0.90;;;;;;;24.77;42.93;101416.44;16147434;19;128927;-42
2022/08/23 15:48:31;;;;;;;4.55;0.90;;;;;;;24.78;42.93;101423.72;16144965;19;129258;-43
2022/08/23 15:53:54;;;;;;;6.82;2.00;;;;;;;24.77;42.63;101419.25;16140799;19;129023;-45
2022/08/23 15:59:19;;;;;;;;;;;;;;;24.74;43.09;101414.19;16145086;19;130344;-46
2022/08/23 16:04:41;;;;;;;20.05;5.22;;;;;;;24.78;43.60;101417.31;16144919;19;128947;-52
2022/08/23 16:10:07;;;;;;;38.75;8.75;;;;;;;24.78;44.18;101420.94;16139653;19;129926;-52
2022/08/23 16:15:29;;;;;;;32.22;8.95;;;;;;;24.79;44.46;101416.19;16146320;19;129796;-52
2022/08/23 16:20:51;;;;;;;33.75;9.80;;;;;;;24.80;44.84;101418.69;16144378;19;129447;-45
2022/08/23 16:26:22;;;;;;;34.35;9.95;;;;;;;24.82;45.00;101422.06;16142492;19;130578;-51
2022/08/23 16:31:55;;;;;;;31.73;8.48;;;;;;;24.81;45.26;101425.97;16136811;19;129264;-52
2022/08/23 16:37:17;;;;;;;25.90;8.32;;;;;;;24.83;44.93;101428.50;16140899;19;129525;-44
2022/08/23 16:42:39;;;;;;;30.40;7.43;;;;;;;24.85;45.25;101427.13;16140406;19;131414;-44
2022/08/23 16:48:01;;;;;;;23.83;7.13;;;;;;;24.87;45.62;101424.03;16136061;19;129626;-43
2022/08/23 16:53:25;;;;;;;27.40;6.97;;;;;;;24.91;45.38;101427.16;16135487;19;129278;-46
2022/08/23 16:58:47;;;;;;;25.48;6.82;;;;;;;24.92;45.05;101424.09;16141467;19;129229;-46
2022/08/23 17:04:09;;;;;;;14.80;6.45;;;;;;;24.95;45.03;101428.28;16137313;19;129604;-46
2022/08/23 17:09:30;;;;;;;18.48;5.60;;;;;;;24.96;45.33;101432.75;16133498;19;130354;-43
2022/08/23 17:14:55;;;;;;;16.17;4.53;;;;;;;24.93;44.86;101424.91;16138757;19;129987;-44
2022/08/23 17:20:19;;;;;;;13.68;5.03;;;;;;;24.91;44.78;101433.59;16140218;19;129145;-43
2022/08/23 17:25:46;;;;;;;11.00;4.00;;;;;;;24.91;44.68;101436.41;16139939;19;129482;-44
2022/08/23 17:31:09;;;;;;;15.48;4.00;;;;;;;24.94;45.07;101440.59;16136508;19;131531;-45
2022/08/23 17:36:38;;;;;;;10.52;3.95;;;;;;;24.92;44.87;101438.09;16139887;19;129792;-46
2022/08/23 17:42:00;;;;;;;15.05;3.90;;;;;;;24.90;44.87;101443.09;16138502;19;129364;-43
2022/08/23 17:47:22;;;;;;;18.42;3.78;;;;;;;24.86;45.02;101456.75;16140442;19;130058;-45
2022/08/23 17:52:44;;;;;;;16.73;3.03;;;;;;;24.83;45.12;101451.75;16134445;19;129034;-43
2022/08/23 17:58:07;;;;;;;11.65;3.25;;;;;;;24.83;44.99;101457.34;16136183;19;129363;-48
2022/08/23 18:03:30;;;;;;;18.73;3.53;;;;;;;24.82;45.51;101468.78;16132188;19;129147;-44
2022/08/23 18:08:54;;;;;;;14.38;3.55;;;;;;;24.82;45.32;101474.38;16134963;19;130634;-44
2022/08/23 18:14:15;;;;;;;9.55;3.33;;;;;;;24.84;45.22;101483.34;16136390;19;129724;-48
2022/08/23 18:19:37;;;;;;;12.27;3.20;;;;;;;24.82;45.39;101483.63;16136802;19;129934;-46
2022/08/23 18:24:59;;;;;;;11.23;2.88;;;;;;;24.83;44.96;101502.09;16137259;19;129064;-46
2022/08/23 18:30:21;;;;;;;11.75;2.67;;;;;;;24.84;44.90;101491.75;16132688;19;129967;-45
2022/08/23 18:35:43;;;;;;;7.70;2.67;;;;;;;24.83;45.07;101506.84;16137293;19;129335;-47
2022/08/23 18:41:05;;;;;;;7.22;2.30;;;;;;;24.82;45.01;101516.34;16134931;19;129207;-44
2022/08/23 18:46:27;;;;;;;8.20;2.50;;;;;;;24.82;44.98;101534.00;16134646;19;129525;-43
2022/08/23 18:51:55;;;;;;;12.10;2.10;;;;;;;24.80;44.98;101536.22;16129014;19;129686;-42
2022/08/23 18:57:18;;;;;;;11.93;2.15;;;;;;;24.77;44.69;101539.56;16127775;19;129401;-43
2022/08/23 19:02:39;;;;;;;6.15;2.03;;;;;;;24.77;44.75;101542.38;16134360;19;129327;-44
2022/08/23 19:08:02;;;;;;;10.98;2.17;;;;;;;24.79;45.13;101547.72;16130936;19;129125;-45
2022/08/23 19:13:24;;;;;;;8.65;2.28;;;;;;;24.78;45.27;101552.44;16133407;19;128934;-43
2022/08/23 19:18:46;;;;;;;5.05;1.73;;;;;;;24.77;45.76;101559.16;16131245;19;129280;-45
2022/08/23 19:24:08;;;;;;;10.65;2.13;;;;;;;24.78;45.71;101565.59;16131655;19;129020;-43
2022/08/23 19:29:30;;;;;;;17.70;1.92;;;;;;;24.78;46.16;101577.63;16130612;19;128899;-44
2022/08/23 19:34:52;;;;;;;16.58;2.17;;;;;;;24.77;46.22;101577.91;16139391;19;129839;-47
2022/08/23 19:40:14;;;;;;;12.40;1.83;;;;;;;24.78;46.15;101588.81;16149121;19;129985;-45
2022/08/23 19:45:37;;;;;;;12.43;1.95;;;;;;;24.78;46.63;101588.81;16145116;19;129387;-43
2022/08/23 19:50:59;;;;;;;15.85;2.05;;;;;;;24.79;46.60;101592.47;16136482;19;131044;-44
2022/08/23 19:56:21;;;;;;;18.48;1.90;;;;;;;24.80;46.49;101603.38;16139881;19;130083;-44
2022/08/23 20:01:44;;;;;;;5.13;1.48;;;;;;;24.82;46.73;101601.16;16142834;19;129700;-47
2022/08/23 20:07:06;;;;;;;13.02;1.80;;;;;;;24.84;46.34;101603.69;16141076;19;129425;-43
2022/08/23 20:12:27;;;;;;;10.10;1.55;;;;;;;24.86;46.37;101595.84;16138931;19;128904;-51
2022/08/23 20:17:49;;;;;;;12.27;1.38;;;;;;;24.87;46.27;101609.56;16140838;19;129668;-47
2022/08/23 20:28:51;;;;;;;14.32;1.42;;;;;;;24.83;46.01;101621.59;16133527;19;129181;-45
2022/08/23 20:34:20;;;;;;;6.25;1.90;;;;;;;24.82;46.07;101617.09;16142633;19;129427;-46
2022/08/23 20:39:42;;;;;;;6.70;1.40;;;;;;;24.81;46.19;101619.06;16141976;19;129565;-43
2022/08/23 20:45:05;;;;;;;9.60;1.30;;;;;;;24.82;45.85;101617.97;16138181;19;131076;-43
2022/08/23 20:50:26;;;;;;;7.60;1.30;;;;;;;24.81;45.88;101618.22;16137264;19;129530;-43
2022/08/23 20:55:48;;;;;;;4.70;1.02;;;;;;;24.79;45.79;101618.50;16136416;19;129215;-47
2022/08/23 21:01:11;;;;;;;5.10;1.45;;;;;;;24.75;45.92;101625.75;16142960;19;129508;-43
2022/08/23 21:06:45;;;;;;;4.85;1.40;;;;;;;24.74;45.65;101626.84;16143132;19;130185;-43
2022/08/23 21:12:12;;;;;;;4.68;1.00;;;;;;;24.70;45.60;101629.34;16139305;19;129819;-45
2022/08/23 21:17:34;;;;;;;1.67;0.90;;;;;;;24.69;45.67;101635.22;16139844;19;130782;-44
2022/08/23 21:22:55;;;;;;;1.48;0.70;;;;;;;24.66;45.69;101630.16;16138984;19;129794;-44
2022/08/23 21:28:18;;;;;;;1.90;0.90;;;;;;;24.65;45.54;101634.94;16140797;19;129502;-45
2022/08/23 21:33:41;;;;;;;4.70;1.00;;;;;;;24.62;45.84;101623.41;16134453;19;129091;-45
2022/08/23 21:39:03;;;;;;;3.17;0.85;;;;;;;24.63;45.89;101636.31;16139931;19;129329;-44
2022/08/23 21:44:25;;;;;;;4.15;1.10;;;;;;;24.60;45.86;101631.28;16136345;19;128953;-44
2022/08/23 21:49:47;;;;;;;2.72;1.20;;;;;;;24.57;45.85;101639.09;16137258;19;129099;-43
2022/08/23 21:55:09;;;;;;;2.38;1.00;;;;;;;24.56;46.07;101640.19;16135143;19;129384;-44
2022/08/23 22:00:32;;;;;;;3.03;0.90;;;;;;;24.55;45.65;101641.31;16135220;19;129117;-43
2022/08/23 22:05:53;;;;;;;2.45;0.80;;;;;;;24.53;46.01;101637.94;16137897;19;130131;-44
2022/08/23 22:11:15;;;;;;;1.25;0.60;;;;;;;24.53;45.80;101639.91;16134387;19;129687;-43
2022/08/23 22:16:39;;;;;;;2.15;0.70;;;;;;;24.52;45.89;101638.22;16136756;19;130235;-43
2022/08/23 22:22:01;;;;;;;2.10;0.90;;;;;;;24.50;45.65;101632.03;16131865;19;129776;-43
2022/08/23 22:27:23;;;;;;;1.88;0.55;;;;;;;24.49;45.79;101639.59;16136192;19;129842;-43
2022/08/23 22:32:45;;;;;;;1.98;0.57;;;;;;;24.48;45.72;101629.53;16132189;19;129357;-43
2022/08/23 22:38:07;;;;;;;0.88;0.60;;;;;;;24.47;45.57;101644.63;16138091;19;129582;-44
2022/08/23 22:43:34;;;;;;;0.93;0.60;;;;;;;24.47;45.74;101644.63;16132778;19;129444;-44
2022/08/23 22:48:56;;;;;;;0.93;0.70;;;;;;;24.46;45.79;101648.53;16135253;19;129527;-43
2022/08/23 22:54:18;;;;;;;0.63;0.43;;;;;;;24.45;45.48;101644.03;16132432;19;129889;-44
2022/08/23 22:59:40;;;;;;;1.75;0.70;;;;;;;24.45;45.62;101655.22;16132864;19;129229;-44
2022/08/23 23:05:02;;;;;;;1.70;0.63;;;;;;;24.44;45.54;101645.16;16132447;19;129989;-44
2022/08/23 23:10:24;;;;;;;0.90;0.65;;;;;;;24.43;45.61;101647.09;16139175;19;129983;-46
2022/08/23 23:15:45;;;;;;;1.40;0.85;;;;;;;24.42;45.27;101642.63;16148482;19;129790;-43
2022/08/23 23:21:08;;;;;;;0.70;0.50;;;;;;;24.42;45.62;101647.38;16147934;19;129659;-47
2022/08/23 23:26:30;;;;;;;1.08;0.70;;;;;;;24.41;45.91;101651.28;16146634;19;129784;-48
2022/08/23 23:31:52;;;;;;;0.77;0.40;;;;;;;24.40;45.61;101646.78;16143771;19;130342;-43
2022/08/23 23:37:13;;;;;;;0.93;0.50;;;;;;;24.39;45.83;101643.16;16146879;19;129337;-47
2022/08/23 23:42:35;;;;;;;0.45;0.30;;;;;;;24.39;45.61;101645.09;16147430;19;130202;-45
2022/08/23 23:47:57;;;;;;;1.10;0.40;;;;;;;24.38;45.53;101646.19;16146586;19;129211;-45
2022/08/23 23:53:19;;;;;;;0.77;0.50;;;;;;;24.37;45.60;101661.31;16139999;19;129854;-44
2022/08/23 23:58:46;;;;;;;0.85;0.40;;;;;;;24.37;45.50;101661.31;16146054;19;129645;-44
